Fulmar — WDD3992 — position and weather

sailwx.info

Track history (hours):
 
Tides and Currents Weather Stations Pressure Air Temp Water Temp Dewpoint Dewpoint Depression Visibility Wind Speed Wind Dir Waves Ship Positions

Oceanographic research ship Fulmar (United States)

Owner: NOAA R/V Fulmar, Monterey, CA. More information available from US FCC via Universal Licensing System.

Last reported at 2019-Oct-03 20:54 UTC. Time now 2019-Oct-14 10:20 UTC.
Position N 37°13' W 122°32'.
Warning: this ship's position is 10 days out of date.

Length 20 m; draft 2 m.

Type: Ship. MMSI: 367139040.

Date/timePositionNaut miles runAvg speedWind from/ knotsBaromVisibWave heightAir tempDewpointWater temp
2019-Oct-03 20:54N 37°13' W 122°32'718.5
2019-Oct-03 20:30N 37°20' W 122°35'918.6
2019-Oct-03 20:00N 37°29' W 122°38'2318.3
2019-Oct-03 18:44N 37°49' W 122°54'418.5
2019-Oct-03 18:30N 37°52' W 122°57'5 9.9
2019-Oct-03 17:57N 37°57' W 123°00'817.8
2019-Oct-03 17:30N 38°05' W 123°03'918.4
2019-Oct-03 17:00N 38°14' W 123°03'611.7
2019-Oct-03 16:30N 38°20' W 123°03'0 0.6
2019-Oct-03 15:56N 38°20' W 123°03'0 0.0
2019-Oct-03 15:26N 38°20' W 123°03'0 0.0
2019-Oct-03 14:53N 38°20' W 123°03'0 0.0
2019-Oct-03 14:27N 38°20' W 123°03'0 0.0
2019-Oct-03 14:00N 38°20' W 123°03'0 0.0
2019-Oct-03 13:30N 38°20' W 123°03'0 0.0
2019-Oct-03 13:00N 38°20' W 123°03'0 0.0
2019-Oct-03 12:30N 38°20' W 123°03'0 0.0
2019-Oct-03 12:00N 38°20' W 123°03'0 0.0
2019-Oct-03 11:30N 38°20' W 123°03'0 0.0
2019-Oct-03 11:00N 38°20' W 123°03'0 0.0
2019-Oct-03 10:30N 38°20' W 123°03'0 0.0
2019-Oct-03 10:01N 38°20' W 123°03'0 0.0
2019-Oct-03 09:30N 38°20' W 123°03'0 0.0
2019-Oct-03 09:00N 38°20' W 123°03'0 0.0
2019-Oct-03 08:31N 38°20' W 123°03'0 0.0
2019-Oct-03 08:00N 38°20' W 123°03'0 0.0
2019-Oct-03 07:30N 38°20' W 123°03'0 0.0
2019-Oct-03 07:01N 38°20' W 123°03'0 0.0
2019-Oct-03 06:30N 38°20' W 123°03'0 0.0
2019-Oct-03 06:00N 38°20' W 123°03'0 0.0
2019-Oct-03 05:30N 38°20' W 123°03'0 0.0
2019-Oct-03 05:00N 38°20' W 123°03'0 0.0
2019-Oct-03 04:30N 38°20' W 123°03'0 0.0
2019-Oct-03 04:01N 38°20' W 123°03'0 0.0
2019-Oct-03 03:31N 38°20' W 123°03'0 0.0
2019-Oct-03 03:00N 38°20' W 123°03'0 0.0
2019-Oct-03 02:30N 38°20' W 123°03'0 0.0
2019-Oct-03 02:01N 38°20' W 123°03'0 0.0
2019-Oct-03 01:31N 38°20' W 123°03'0 0.0
2019-Oct-03 01:00N 38°20' W 123°03'1 1.7
2019-Oct-03 00:30N 38°19' W 123°03'4 8.7
2019-Oct-03 00:00N 38°21' W 123°08'918.7
2019-Oct-02 23:30N 38°29' W 123°15'5 7.3
2019-Oct-02 22:48N 38°33' W 123°19'0 0.0
2019-Oct-02 22:30N 38°33' W 123°19'0 0.0
2019-Oct-02 21:52N 38°33' W 123°19'0 0.0
2019-Oct-02 21:25N 38°33' W 123°19'0 0.0
2019-Oct-02 18:43N 38°33' W 123°19'0 0.0
2019-Oct-02 17:40N 38°33' W 123°19'0 0.2
2019-Oct-02 16:26N 38°33' W 123°19'615.1
2019-Oct-02 16:00N 38°28' W 123°14'918.0
2019-Oct-02 15:31N 38°20' W 123°07'3 6.6
2019-Oct-02 15:00N 38°19' W 123°03'0 0.9
2019-Oct-02 14:30N 38°20' W 123°03'0 0.0
2019-Oct-02 14:00N 38°20' W 123°03'0 0.0
2019-Oct-02 13:30N 38°20' W 123°03'0 0.0
2019-Oct-02 13:00N 38°20' W 123°03'0 0.0
2019-Oct-02 12:30N 38°20' W 123°03'0 0.0
2019-Oct-02 12:00N 38°20' W 123°03'0 0.0
2019-Oct-02 11:30N 38°20' W 123°03'0 0.1
2019-Oct-02 11:00N 38°20' W 123°03'0 0.1
2019-Oct-02 10:30N 38°20' W 123°03'0 0.0
2019-Oct-02 10:00N 38°20' W 123°03'0 0.0
2019-Oct-02 09:30N 38°20' W 123°03'0 0.0
2019-Oct-02 09:00N 38°20' W 123°03'0 0.0
2019-Oct-02 08:30N 38°20' W 123°03'0 0.0
2019-Oct-02 08:00N 38°20' W 123°03'0 0.0
2019-Oct-02 07:30N 38°20' W 123°03'0 0.0
2019-Oct-02 07:00N 38°20' W 123°03'0 0.0
2019-Oct-02 06:30N 38°20' W 123°03'0 0.0
2019-Oct-02 06:00N 38°20' W 123°03'0 0.0
2019-Oct-02 05:30N 38°20' W 123°03'0 0.0
2019-Oct-02 05:00N 38°20' W 123°03'0 0.0
2019-Oct-02 04:30N 38°20' W 123°03'0 0.0
2019-Oct-02 04:00N 38°20' W 123°03'0 0.0
2019-Oct-02 03:30N 38°20' W 123°03'0 0.1
2019-Oct-02 03:00N 38°20' W 123°03'0 0.0
2019-Oct-02 02:30N 38°20' W 123°03'0 0.1
2019-Oct-02 02:00N 38°20' W 123°03'0 0.0
2019-Oct-02 01:30N 38°20' W 123°03'0 0.0
2019-Oct-02 01:00N 38°20' W 123°03'0 0.0
2019-Oct-02 00:30N 38°20' W 123°03'0 0.3
2019-Oct-02 00:00N 38°20' W 123°03'2 3.8
2019-Oct-01 23:30N 38°19' W 123°06'816.7
2019-Oct-01 23:00N 38°26' W 123°11'5 9.3
2019-Oct-01 22:30N 38°30' W 123°14'0 0.0
2019-Oct-01 22:00N 38°30' W 123°14'0 0.0
2019-Oct-01 21:30N 38°30' W 123°14'1 1.2
2019-Oct-01 21:00N 38°30' W 123°14'0 0.0
2019-Oct-01 20:30N 38°30' W 123°14'0 0.0
2019-Oct-01 20:00N 38°30' W 123°14'0 0.0
2019-Oct-01 19:30N 38°30' W 123°14'0 0.0
2019-Oct-01 19:00N 38°30' W 123°14'0 0.0
2019-Oct-01 18:30N 38°30' W 123°14'0 0.0
2019-Oct-01 18:00N 38°30' W 123°14'2 3.5
2019-Oct-01 17:30N 38°28' W 123°14'816.7
2019-Oct-01 17:00N 38°21' W 123°08'510.0
2019-Oct-01 16:30N 38°18' W 123°03'2 3.4
2019-Oct-01 16:00N 38°20' W 123°03'0 0.0
2019-Oct-01 15:30N 38°20' W 123°03'0 0.0
2019-Oct-01 15:00N 38°20' W 123°03'0 0.2
2019-Oct-01 14:30N 38°20' W 123°03'0 0.0
2019-Oct-01 14:00N 38°20' W 123°03'0 0.0
2019-Oct-01 13:30N 38°20' W 123°03'0 0.0
2019-Oct-01 13:00N 38°20' W 123°03'0 0.1
2019-Oct-01 12:30N 38°20' W 123°03'0 0.1
2019-Oct-01 12:00N 38°20' W 123°03'0 0.0
2019-Oct-01 11:30N 38°20' W 123°03'0 0.0
2019-Oct-01 11:00N 38°20' W 123°03'0 0.0
2019-Oct-01 10:30N 38°20' W 123°03'0 0.0
2019-Oct-01 10:00N 38°20' W 123°03'0 0.0
2019-Oct-01 09:30N 38°20' W 123°03'0 0.0
2019-Oct-01 09:00N 38°20' W 123°03'0 0.0
2019-Oct-01 08:30N 38°20' W 123°03'0 0.1
2019-Oct-01 08:00N 38°20' W 123°03'0 0.1
2019-Oct-01 07:30N 38°20' W 123°03'0 0.0
2019-Oct-01 07:00N 38°20' W 123°03'0 0.0
2019-Oct-01 06:30N 38°20' W 123°03'0 0.0
2019-Oct-01 06:00N 38°20' W 123°03'0 0.0
2019-Oct-01 05:30N 38°20' W 123°03'0 0.0
2019-Oct-01 05:00N 38°20' W 123°03'0 0.0
2019-Oct-01 04:30N 38°20' W 123°03'0 0.0
2019-Oct-01 04:00N 38°20' W 123°03'0 0.1
2019-Oct-01 03:30N 38°20' W 123°03'0 0.0
2019-Oct-01 03:00N 38°20' W 123°03'0 0.1
2019-Oct-01 02:30N 38°20' W 123°03'0 0.0
2019-Oct-01 02:00N 38°20' W 123°03'0 0.0
2019-Oct-01 01:30N 38°20' W 123°03'0 0.0
2019-Oct-01 01:00N 38°20' W 123°03'0 0.0
2019-Oct-01 00:30N 38°20' W 123°03'0 0.0
2019-Oct-01 00:00N 38°20' W 123°03'0 0.0
2019-Sep-30 23:30N 38°20' W 123°03'0 0.0
2019-Sep-30 23:00N 38°20' W 123°03'0 0.2
2019-Sep-30 22:30N 38°20' W 123°03'0 0.0
2019-Sep-30 22:00N 38°20' W 123°03'0 0.0
2019-Sep-30 21:30N 38°20' W 123°03'0 0.0
2019-Sep-30 21:00N 38°20' W 123°03'0 0.0
2019-Sep-30 20:30N 38°20' W 123°03'0 0.0
2019-Sep-30 20:00N 38°20' W 123°03'0 0.0
2019-Sep-30 19:30N 38°20' W 123°03'1 1.5
2019-Sep-30 19:00N 38°19' W 123°03'713.3
2019-Sep-30 18:30N 38°13' W 123°02'917.5
2019-Sep-30 18:00N 38°04' W 123°03'815.8
2019-Sep-30 17:29N 37°57' W 122°57'1518.0
2019-Sep-30 16:40N 37°51' W 122°40'417.4
2019-Sep-30 16:25N 37°49' W 122°35'613.9
2019-Sep-30 16:00N 37°51' W 122°28'2 3.5
2019-Sep-30 15:30N 37°52' W 122°30'0 0.0
2019-Sep-30 15:00N 37°52' W 122°30'  
2019-Sep-27 01:26N 37°52' W 122°30'0 0.2
2019-Sep-27 01:00N 37°52' W 122°30'0 0.2
2019-Sep-27 00:30N 37°52' W 122°29'5 9.5
2019-Sep-27 00:00N 37°47' W 122°31'917.2
2019-Sep-26 23:30N 37°40' W 122°38'10 1.2
2019-Sep-26 15:24N 37°49' W 122°44'716.8
2019-Sep-26 15:01N 37°48' W 122°35'612.3
2019-Sep-26 14:31N 37°51' W 122°28'2 3.2
2019-Sep-26 14:00N 37°52' W 122°30'0 0.0
2019-Sep-26 13:30N 37°52' W 122°30'0 0.0
2019-Sep-26 13:00N 37°52' W 122°30'0 0.0
2019-Sep-26 01:05N 37°52' W 122°30'0 0.0
2019-Sep-26 01:00N 37°52' W 122°30'3 6.2
2019-Sep-26 00:30N 37°49' W 122°31'1019.2
2019-Sep-26 00:00N 37°50' W 122°43'1018.2
2019-Sep-25 23:27N 37°53' W 122°55'4 7.2
2019-Sep-25 22:57N 37°52' W 122°60'510.4
2019-Sep-25 22:30N 37°53' W 123°05'5 6.9
2019-Sep-25 21:49N 37°53' W 123°11'0 0.5
2019-Sep-25 21:30N 37°53' W 123°11'5 8.9
2019-Sep-25 21:00N 37°53' W 123°17'2 2.5
2019-Sep-25 20:22N 37°53' W 123°19'3 7.4
2019-Sep-25 19:59N 37°53' W 123°23'2 4.1
2019-Sep-25 19:26N 37°53' W 123°26'1 0.8
2019-Sep-25 18:28N 37°53' W 123°26'1 1.7
2019-Sep-25 17:42N 37°53' W 123°25'0 0.1
2019-Sep-25 17:30N 37°53' W 123°25'1513.6
2019-Sep-25 16:25N 37°52' W 123°06'615.6
2019-Sep-25 16:01N 37°51' W 122°58'1116.7
2019-Sep-25 15:22N 37°50' W 122°45'617.3
2019-Sep-25 15:00N 37°49' W 122°37'713.8
2019-Sep-25 14:30N 37°51' W 122°28'1 2.4
2019-Sep-25 14:00N 37°52' W 122°30'0 0.0
2019-Sep-25 13:30N 37°52' W 122°30'0 0.0
2019-Sep-25 13:00N 37°52' W 122°30'0 0.0
2019-Sep-25 00:23N 37°52' W 122°30'2 5.7
2019-Sep-25 00:01N 37°50' W 122°28'918.4
2019-Sep-24 23:30N 37°46' W 122°38'5 8.3
2019-Sep-24 22:52N 37°44' W 122°45'3 8.6
2019-Sep-24 22:30N 37°44' W 122°49'4 7.9
2019-Sep-24 22:00N 37°44' W 122°54'4 6.2
2019-Sep-24 21:20N 37°44' W 122°59'3 8.8
2019-Sep-24 21:00N 37°44' W 123°03'3 6.0
2019-Sep-24 20:30N 37°44' W 123°06'1 2.8
2019-Sep-24 20:00N 37°43' W 123°08'4 8.6
2019-Sep-24 19:30N 37°43' W 123°14'0 0.4
2019-Sep-24 19:00N 37°43' W 123°14'2 3.7
2019-Sep-24 18:30N 37°44' W 123°12'0 0.1
2019-Sep-24 18:00N 37°44' W 123°12'1 1.9
2019-Sep-24 17:28N 37°43' W 123°10'1 1.1
2019-Sep-24 17:00N 37°43' W 123°10'1315.8
2019-Sep-24 16:12N 37°46' W 122°54'417.2
2019-Sep-24 15:59N 37°46' W 122°49'817.6
2019-Sep-24 15:30N 37°48' W 122°39'917.0
2019-Sep-24 15:00N 37°50' W 122°28'2 4.6
2019-Sep-24 14:30N 37°52' W 122°30'0 0.0
2019-Sep-24 14:00N 37°52' W 122°30'0 0.0
2019-Sep-24 13:30N 37°52' W 122°30'  
Track history (hours):
 
Tides and Currents Weather Stations Pressure Air Temp Water Temp Dewpoint Dewpoint Depression Visibility Wind Speed Wind Dir Waves Ship Positions

Oceanographic research ship Fulmar (United States)

Owner: NOAA R/V Fulmar, Monterey, CA. More information available from US FCC via Universal Licensing System.

Last reported at 2019-Oct-03 20:54 UTC. Time now 2019-Oct-14 10:20 UTC.
Position N 37°13' W 122°32'.
Warning: this ship's position is 10 days out of date.

Length 20 m; draft 2 m.

Type: Ship. MMSI: 367139040.

Date/timePositionNaut miles runAvg speedWind from/ knotsBaromVisibWave heightAir tempDewpointWater temp
2019-Oct-03 20:54N 37°13' W 122°32'718.5
2019-Oct-03 20:30N 37°20' W 122°35'918.6
2019-Oct-03 20:00N 37°29' W 122°38'2318.3
2019-Oct-03 18:44N 37°49' W 122°54'418.5
2019-Oct-03 18:30N 37°52' W 122°57'5 9.9
2019-Oct-03 17:57N 37°57' W 123°00'817.8
2019-Oct-03 17:30N 38°05' W 123°03'918.4
2019-Oct-03 17:00N 38°14' W 123°03'611.7
2019-Oct-03 16:30N 38°20' W 123°03'0 0.6
2019-Oct-03 15:56N 38°20' W 123°03'0 0.0
2019-Oct-03 15:26N 38°20' W 123°03'0 0.0
2019-Oct-03 14:53N 38°20' W 123°03'0 0.0
2019-Oct-03 14:27N 38°20' W 123°03'0 0.0
2019-Oct-03 14:00N 38°20' W 123°03'0 0.0
2019-Oct-03 13:30N 38°20' W 123°03'0 0.0
2019-Oct-03 13:00N 38°20' W 123°03'0 0.0
2019-Oct-03 12:30N 38°20' W 123°03'0 0.0
2019-Oct-03 12:00N 38°20' W 123°03'0 0.0
2019-Oct-03 11:30N 38°20' W 123°03'0 0.0
2019-Oct-03 11:00N 38°20' W 123°03'0 0.0
2019-Oct-03 10:30N 38°20' W 123°03'0 0.0
2019-Oct-03 10:01N 38°20' W 123°03'0 0.0
2019-Oct-03 09:30N 38°20' W 123°03'0 0.0
2019-Oct-03 09:00N 38°20' W 123°03'0 0.0
2019-Oct-03 08:31N 38°20' W 123°03'0 0.0
2019-Oct-03 08:00N 38°20' W 123°03'0 0.0
2019-Oct-03 07:30N 38°20' W 123°03'0 0.0
2019-Oct-03 07:01N 38°20' W 123°03'0 0.0
2019-Oct-03 06:30N 38°20' W 123°03'0 0.0
2019-Oct-03 06:00N 38°20' W 123°03'0 0.0
2019-Oct-03 05:30N 38°20' W 123°03'0 0.0
2019-Oct-03 05:00N 38°20' W 123°03'0 0.0
2019-Oct-03 04:30N 38°20' W 123°03'0 0.0
2019-Oct-03 04:01N 38°20' W 123°03'0 0.0
2019-Oct-03 03:31N 38°20' W 123°03'0 0.0
2019-Oct-03 03:00N 38°20' W 123°03'0 0.0
2019-Oct-03 02:30N 38°20' W 123°03'0 0.0
2019-Oct-03 02:01N 38°20' W 123°03'0 0.0
2019-Oct-03 01:31N 38°20' W 123°03'0 0.0
2019-Oct-03 01:00N 38°20' W 123°03'1 1.7
2019-Oct-03 00:30N 38°19' W 123°03'4 8.7
2019-Oct-03 00:00N 38°21' W 123°08'918.7
2019-Oct-02 23:30N 38°29' W 123°15'5 7.3
2019-Oct-02 22:48N 38°33' W 123°19'0 0.0
2019-Oct-02 22:30N 38°33' W 123°19'0 0.0
2019-Oct-02 21:52N 38°33' W 123°19'0 0.0
2019-Oct-02 21:25N 38°33' W 123°19'0 0.0
2019-Oct-02 18:43N 38°33' W 123°19'0 0.0
2019-Oct-02 17:40N 38°33' W 123°19'0 0.2
2019-Oct-02 16:26N 38°33' W 123°19'615.1
2019-Oct-02 16:00N 38°28' W 123°14'918.0
2019-Oct-02 15:31N 38°20' W 123°07'3 6.6
2019-Oct-02 15:00N 38°19' W 123°03'0 0.9
2019-Oct-02 14:30N 38°20' W 123°03'0 0.0
2019-Oct-02 14:00N 38°20' W 123°03'0 0.0
2019-Oct-02 13:30N 38°20' W 123°03'0 0.0
2019-Oct-02 13:00N 38°20' W 123°03'0 0.0
2019-Oct-02 12:30N 38°20' W 123°03'0 0.0
2019-Oct-02 12:00N 38°20' W 123°03'0 0.0
2019-Oct-02 11:30N 38°20' W 123°03'0 0.1
2019-Oct-02 11:00N 38°20' W 123°03'0 0.1
2019-Oct-02 10:30N 38°20' W 123°03'0 0.0
2019-Oct-02 10:00N 38°20' W 123°03'0 0.0
2019-Oct-02 09:30N 38°20' W 123°03'0 0.0
2019-Oct-02 09:00N 38°20' W 123°03'0 0.0
2019-Oct-02 08:30N 38°20' W 123°03'0 0.0
2019-Oct-02 08:00N 38°20' W 123°03'0 0.0
2019-Oct-02 07:30N 38°20' W 123°03'0 0.0
2019-Oct-02 07:00N 38°20' W 123°03'0 0.0
2019-Oct-02 06:30N 38°20' W 123°03'0 0.0
2019-Oct-02 06:00N 38°20' W 123°03'0 0.0
2019-Oct-02 05:30N 38°20' W 123°03'0 0.0
2019-Oct-02 05:00N 38°20' W 123°03'0 0.0
2019-Oct-02 04:30N 38°20' W 123°03'0 0.0
2019-Oct-02 04:00N 38°20' W 123°03'0 0.0
2019-Oct-02 03:30N 38°20' W 123°03'0 0.1
2019-Oct-02 03:00N 38°20' W 123°03'0 0.0
2019-Oct-02 02:30N 38°20' W 123°03'0 0.1
2019-Oct-02 02:00N 38°20' W 123°03'0 0.0
2019-Oct-02 01:30N 38°20' W 123°03'0 0.0
2019-Oct-02 01:00N 38°20' W 123°03'0 0.0
2019-Oct-02 00:30N 38°20' W 123°03'0 0.3
2019-Oct-02 00:00N 38°20' W 123°03'2 3.8
2019-Oct-01 23:30N 38°19' W 123°06'816.7
2019-Oct-01 23:00N 38°26' W 123°11'5 9.3
2019-Oct-01 22:30N 38°30' W 123°14'0 0.0
2019-Oct-01 22:00N 38°30' W 123°14'0 0.0
2019-Oct-01 21:30N 38°30' W 123°14'1 1.2
2019-Oct-01 21:00N 38°30' W 123°14'0 0.0
2019-Oct-01 20:30N 38°30' W 123°14'0 0.0
2019-Oct-01 20:00N 38°30' W 123°14'0 0.0
2019-Oct-01 19:30N 38°30' W 123°14'0 0.0
2019-Oct-01 19:00N 38°30' W 123°14'0 0.0
2019-Oct-01 18:30N 38°30' W 123°14'0 0.0
2019-Oct-01 18:00N 38°30' W 123°14'2 3.5
2019-Oct-01 17:30N 38°28' W 123°14'816.7
2019-Oct-01 17:00N 38°21' W 123°08'510.0
2019-Oct-01 16:30N 38°18' W 123°03'2 3.4
2019-Oct-01 16:00N 38°20' W 123°03'0 0.0
2019-Oct-01 15:30N 38°20' W 123°03'0 0.0
2019-Oct-01 15:00N 38°20' W 123°03'0 0.2
2019-Oct-01 14:30N 38°20' W 123°03'0 0.0
2019-Oct-01 14:00N 38°20' W 123°03'0 0.0
2019-Oct-01 13:30N 38°20' W 123°03'0 0.0
2019-Oct-01 13:00N 38°20' W 123°03'0 0.1
2019-Oct-01 12:30N 38°20' W 123°03'0 0.1
2019-Oct-01 12:00N 38°20' W 123°03'0 0.0
2019-Oct-01 11:30N 38°20' W 123°03'0 0.0
2019-Oct-01 11:00N 38°20' W 123°03'0 0.0
2019-Oct-01 10:30N 38°20' W 123°03'0 0.0
2019-Oct-01 10:00N 38°20' W 123°03'0 0.0
2019-Oct-01 09:30N 38°20' W 123°03'0 0.0
2019-Oct-01 09:00N 38°20' W 123°03'0 0.0
2019-Oct-01 08:30N 38°20' W 123°03'0 0.1
2019-Oct-01 08:00N 38°20' W 123°03'0 0.1
2019-Oct-01 07:30N 38°20' W 123°03'0 0.0
2019-Oct-01 07:00N 38°20' W 123°03'0 0.0
2019-Oct-01 06:30N 38°20' W 123°03'0 0.0
2019-Oct-01 06:00N 38°20' W 123°03'0 0.0
2019-Oct-01 05:30N 38°20' W 123°03'0 0.0
2019-Oct-01 05:00N 38°20' W 123°03'0 0.0
2019-Oct-01 04:30N 38°20' W 123°03'0 0.0
2019-Oct-01 04:00N 38°20' W 123°03'0 0.1
2019-Oct-01 03:30N 38°20' W 123°03'0 0.0
2019-Oct-01 03:00N 38°20' W 123°03'0 0.1
2019-Oct-01 02:30N 38°20' W 123°03'0 0.0
2019-Oct-01 02:00N 38°20' W 123°03'0 0.0
2019-Oct-01 01:30N 38°20' W 123°03'0 0.0
2019-Oct-01 01:00N 38°20' W 123°03'0 0.0
2019-Oct-01 00:30N 38°20' W 123°03'0 0.0
2019-Oct-01 00:00N 38°20' W 123°03'0 0.0
2019-Sep-30 23:30N 38°20' W 123°03'0 0.0
2019-Sep-30 23:00N 38°20' W 123°03'0 0.2
2019-Sep-30 22:30N 38°20' W 123°03'0 0.0
2019-Sep-30 22:00N 38°20' W 123°03'0 0.0
2019-Sep-30 21:30N 38°20' W 123°03'0 0.0
2019-Sep-30 21:00N 38°20' W 123°03'0 0.0
2019-Sep-30 20:30N 38°20' W 123°03'0 0.0
2019-Sep-30 20:00N 38°20' W 123°03'0 0.0
2019-Sep-30 19:30N 38°20' W 123°03'1 1.5
2019-Sep-30 19:00N 38°19' W 123°03'713.3
2019-Sep-30 18:30N 38°13' W 123°02'917.5
2019-Sep-30 18:00N 38°04' W 123°03'815.8
2019-Sep-30 17:29N 37°57' W 122°57'1518.0
2019-Sep-30 16:40N 37°51' W 122°40'417.4
2019-Sep-30 16:25N 37°49' W 122°35'613.9
2019-Sep-30 16:00N 37°51' W 122°28'2 3.5
2019-Sep-30 15:30N 37°52' W 122°30'0 0.0
2019-Sep-30 15:00N 37°52' W 122°30'  
2019-Sep-27 01:26N 37°52' W 122°30'0 0.2
2019-Sep-27 01:00N 37°52' W 122°30'0 0.2
2019-Sep-27 00:30N 37°52' W 122°29'5 9.5
2019-Sep-27 00:00N 37°47' W 122°31'917.2
2019-Sep-26 23:30N 37°40' W 122°38'10 1.2
2019-Sep-26 15:24N 37°49' W 122°44'716.8
2019-Sep-26 15:01N 37°48' W 122°35'612.3
2019-Sep-26 14:31N 37°51' W 122°28'2 3.2
2019-Sep-26 14:00N 37°52' W 122°30'0 0.0
2019-Sep-26 13:30N 37°52' W 122°30'0 0.0
2019-Sep-26 13:00N 37°52' W 122°30'0 0.0
2019-Sep-26 01:05N 37°52' W 122°30'0 0.0
2019-Sep-26 01:00N 37°52' W 122°30'3 6.2
2019-Sep-26 00:30N 37°49' W 122°31'1019.2
2019-Sep-26 00:00N 37°50' W 122°43'1018.2
2019-Sep-25 23:27N 37°53' W 122°55'4 7.2
2019-Sep-25 22:57N 37°52' W 122°60'510.4
2019-Sep-25 22:30N 37°53' W 123°05'5 6.9
2019-Sep-25 21:49N 37°53' W 123°11'0 0.5
2019-Sep-25 21:30N 37°53' W 123°11'5 8.9
2019-Sep-25 21:00N 37°53' W 123°17'2 2.5
2019-Sep-25 20:22N 37°53' W 123°19'3 7.4
2019-Sep-25 19:59N 37°53' W 123°23'2 4.1
2019-Sep-25 19:26N 37°53' W 123°26'1 0.8
2019-Sep-25 18:28N 37°53' W 123°26'1 1.7
2019-Sep-25 17:42N 37°53' W 123°25'0 0.1
2019-Sep-25 17:30N 37°53' W 123°25'1513.6
2019-Sep-25 16:25N 37°52' W 123°06'615.6
2019-Sep-25 16:01N 37°51' W 122°58'1116.7
2019-Sep-25 15:22N 37°50' W 122°45'617.3
2019-Sep-25 15:00N 37°49' W 122°37'713.8
2019-Sep-25 14:30N 37°51' W 122°28'1 2.4
2019-Sep-25 14:00N 37°52' W 122°30'0 0.0
2019-Sep-25 13:30N 37°52' W 122°30'0 0.0
2019-Sep-25 13:00N 37°52' W 122°30'0 0.0
2019-Sep-25 00:23N 37°52' W 122°30'2 5.7
2019-Sep-25 00:01N 37°50' W 122°28'918.4
2019-Sep-24 23:30N 37°46' W 122°38'5 8.3
2019-Sep-24 22:52N 37°44' W 122°45'3 8.6
2019-Sep-24 22:30N 37°44' W 122°49'4 7.9
2019-Sep-24 22:00N 37°44' W 122°54'4 6.2
2019-Sep-24 21:20N 37°44' W 122°59'3 8.8
2019-Sep-24 21:00N 37°44' W 123°03'3 6.0
2019-Sep-24 20:30N 37°44' W 123°06'1 2.8
2019-Sep-24 20:00N 37°43' W 123°08'4 8.6
2019-Sep-24 19:30N 37°43' W 123°14'0 0.4
2019-Sep-24 19:00N 37°43' W 123°14'2 3.7
2019-Sep-24 18:30N 37°44' W 123°12'0 0.1
2019-Sep-24 18:00N 37°44' W 123°12'1 1.9
2019-Sep-24 17:28N 37°43' W 123°10'1 1.1
2019-Sep-24 17:00N 37°43' W 123°10'1315.8
2019-Sep-24 16:12N 37°46' W 122°54'417.2
2019-Sep-24 15:59N 37°46' W 122°49'817.6
2019-Sep-24 15:30N 37°48' W 122°39'917.0
2019-Sep-24 15:00N 37°50' W 122°28'2 4.6
2019-Sep-24 14:30N 37°52' W 122°30'0 0.0
2019-Sep-24 14:00N 37°52' W 122°30'0 0.0
2019-Sep-24 13:30N 37°52' W 122°30'  

Dump ship's entire track history